createdAt,value
2018-07-07T00:01:00.045Z,8.23
2018-07-07T00:03:27.655Z,8.83
2018-07-07T00:05:55.444Z,8.77
2018-07-07T00:08:23.105Z,9.70
2018-07-07T00:10:55.673Z,8.93
2018-07-07T00:13:23.255Z,8.97
2018-07-07T00:15:50.867Z,8.43
2018-07-07T00:18:18.363Z,8.37
2018-07-07T00:20:46.736Z,8.70
2018-07-07T00:23:14.276Z,8.17
2018-07-07T00:25:42.160Z,7.30
2018-07-07T00:28:10.469Z,8.43
2018-07-07T00:30:38.644Z,7.73
2018-07-07T00:33:06.640Z,9.10
2018-07-07T00:35:34.637Z,7.73
2018-07-07T00:38:02.697Z,7.70
2018-07-07T00:40:30.261Z,8.53
2018-07-07T00:42:57.841Z,7.00
2018-07-07T00:45:25.350Z,7.30
2018-07-07T00:47:53.012Z,7.97
2018-07-07T00:50:20.549Z,7.03
2018-07-07T00:52:48.160Z,6.90
2018-07-07T00:55:15.796Z,7.27
2018-07-07T00:57:43.296Z,7.67
2018-07-07T01:00:12.634Z,7.93
2018-07-07T01:02:41.037Z,8.00
2018-07-07T01:05:19.102Z,7.73
2018-07-07T01:07:46.604Z,7.27
2018-07-07T01:10:15.219Z,7.80
2018-07-07T01:12:43.819Z,7.37
2018-07-07T01:15:11.392Z,7.57
2018-07-07T01:17:39.750Z,7.73
2018-07-07T01:20:07.483Z,7.30
2018-07-07T01:22:34.971Z,8.00
2018-07-07T01:25:04.013Z,8.40
2018-07-07T01:27:31.514Z,7.60
2018-07-07T01:29:59.062Z,7.70
2018-07-07T01:32:26.520Z,7.80
2018-07-07T01:34:54.179Z,6.90
2018-07-07T01:37:22.304Z,7.30
2018-07-07T01:39:49.791Z,7.43
2018-07-07T01:42:18.324Z,7.60
2018-07-07T01:44:45.893Z,7.50
2018-07-07T01:47:13.461Z,7.17
2018-07-07T01:49:41.767Z,7.80
2018-07-07T01:52:09.236Z,7.33
2018-07-07T01:54:36.769Z,7.97
2018-07-07T01:57:04.247Z,7.27
2018-07-07T01:59:31.817Z,7.37
2018-07-07T02:01:59.922Z,8.20
2018-07-07T02:04:27.635Z,7.40
2018-07-07T02:16:45.191Z,6.77
2018-07-07T02:19:12.709Z,6.73
2018-07-07T02:21:40.389Z,6.57
2018-07-07T02:24:08.551Z,7.00
2018-07-07T02:26:36.148Z,6.50
2018-07-07T02:29:03.711Z,6.03
2018-07-07T02:31:31.463Z,7.37
2018-07-07T02:33:59.138Z,7.40
2018-07-07T02:36:26.735Z,6.90
2018-07-07T02:38:54.876Z,6.93
2018-07-07T02:41:22.864Z,7.10
2018-07-07T02:43:51.055Z,6.37
2018-07-07T02:46:18.821Z,6.00
2018-07-07T02:48:47.071Z,6.57
2018-07-07T02:51:14.570Z,6.47
2018-07-07T02:53:42.363Z,6.70
2018-07-07T02:56:09.833Z,7.43
2018-07-07T02:58:37.590Z,6.73
2018-07-07T03:01:04.973Z,6.60
2018-07-07T03:03:32.467Z,6.70
2018-07-07T03:06:00.117Z,6.83
2018-07-07T03:08:27.556Z,7.07
2018-07-07T03:10:55.068Z,6.60
2018-07-07T03:13:23.699Z,6.70
2018-07-07T03:15:51.285Z,7.03
2018-07-07T03:18:18.844Z,6.20
2018-07-07T03:20:46.584Z,6.40
2018-07-07T03:23:15.308Z,6.70
2018-07-07T03:25:42.827Z,7.20
2018-07-07T03:28:10.382Z,6.77
2018-07-07T03:30:37.836Z,6.70
2018-07-07T03:33:05.398Z,6.47
2018-07-07T03:35:33.010Z,6.77
2018-07-07T03:38:00.630Z,7.23
2018-07-07T03:40:28.137Z,6.27
2018-07-07T03:42:55.660Z,7.47
2018-07-07T03:45:24.567Z,7.10
2018-07-07T03:47:52.180Z,7.57
2018-07-07T03:50:19.561Z,7.43
2018-07-07T03:52:47.147Z,6.93
2018-07-07T03:55:14.637Z,8.10
2018-07-07T03:57:42.169Z,7.07
2018-07-07T04:00:10.112Z,6.70
2018-07-07T04:02:37.495Z,6.33
2018-07-07T04:05:05.014Z,7.00
2018-07-07T04:07:32.500Z,6.70
2018-07-07T04:10:00.138Z,7.83
2018-07-07T04:12:27.689Z,7.33
2018-07-07T04:14:56.600Z,7.27
2018-07-07T04:17:24.265Z,7.23
2018-07-07T04:19:51.845Z,7.57
2018-07-07T04:22:19.927Z,6.77
2018-07-07T04:24:47.447Z,8.20
2018-07-07T04:27:14.900Z,7.67
2018-07-07T04:29:42.408Z,6.53
2018-07-07T04:32:10.530Z,7.77
2018-07-07T04:34:38.092Z,7.60
2018-07-07T04:37:05.958Z,7.90
2018-07-07T04:39:34.030Z,7.10
2018-07-07T04:42:01.499Z,8.17
2018-07-07T04:44:29.861Z,7.03
2018-07-07T04:46:57.863Z,7.73
2018-07-07T04:49:25.550Z,7.90
2018-07-07T04:51:52.955Z,7.50
2018-07-07T04:54:20.555Z,6.97
2018-07-07T04:56:48.170Z,7.50
2018-07-07T04:59:16.320Z,7.57
2018-07-07T05:01:43.951Z,8.27
2018-07-07T05:04:11.566Z,7.33
2018-07-07T05:06:39.629Z,7.77
2018-07-07T05:09:07.126Z,7.50
2018-07-07T05:11:34.729Z,7.87
2018-07-07T05:14:03.160Z,7.80
2018-07-07T05:16:31.442Z,7.40
2018-07-07T05:18:58.940Z,7.90
2018-07-07T05:21:26.556Z,10.40
2018-07-07T05:23:54.080Z,10.47
2018-07-07T05:26:21.602Z,9.60
2018-07-07T05:28:49.291Z,8.63
2018-07-07T05:31:16.789Z,8.80
2018-07-07T05:33:44.367Z,10.10
2018-07-07T05:36:12.562Z,8.13
2018-07-07T05:38:40.585Z,7.43
2018-07-07T05:41:08.132Z,7.50
2018-07-07T05:43:35.667Z,8.27
2018-07-07T05:46:03.340Z,10.73
2018-07-07T05:48:30.947Z,7.80
2018-07-07T05:50:59.072Z,6.83
2018-07-07T05:53:27.195Z,7.10
2018-07-07T05:55:54.757Z,6.50
2018-07-07T05:58:22.326Z,7.50
2018-07-07T06:00:50.960Z,7.37
2018-07-07T06:03:19.373Z,7.47
2018-07-07T06:05:46.887Z,7.23
2018-07-07T06:08:14.368Z,7.10
2018-07-07T06:10:42.016Z,6.90
2018-07-07T06:13:09.560Z,8.67
2018-07-07T06:15:37.239Z,7.23
2018-07-07T06:18:05.391Z,7.10
2018-07-07T06:20:33.083Z,5.67
2018-07-07T06:23:00.731Z,6.03
2018-07-07T06:25:29.290Z,5.80
2018-07-07T06:27:57.087Z,5.00
2018-07-07T06:30:24.594Z,4.20
2018-07-07T06:32:52.547Z,5.83
2018-07-07T06:35:20.778Z,6.00
2018-07-07T06:37:48.388Z,4.90
2018-07-07T06:40:15.993Z,5.00
2018-07-07T06:42:43.438Z,5.27
2018-07-07T06:45:10.904Z,3.97
2018-07-07T06:47:38.613Z,3.80
2018-07-07T06:50:06.830Z,4.83
2018-07-07T06:52:34.337Z,4.03
2018-07-07T06:55:01.876Z,4.07
2018-07-07T06:57:29.365Z,4.23
2018-07-07T06:59:57.567Z,4.30
2018-07-07T07:02:24.956Z,3.00
2018-07-07T07:04:53.419Z,2.97
2018-07-07T07:07:21.007Z,2.80
2018-07-07T07:09:48.516Z,3.47
2018-07-07T07:12:16.060Z,3.00
2018-07-07T07:14:43.905Z,2.67
2018-07-07T07:17:11.451Z,2.10
2018-07-07T07:19:39.748Z,2.90
2018-07-07T07:22:07.428Z,3.13
2018-07-07T07:24:34.971Z,2.57
2018-07-07T07:27:02.513Z,2.70
2018-07-07T07:29:30.051Z,2.80
2018-07-07T07:31:57.621Z,3.07
2018-07-07T07:34:25.181Z,2.80
2018-07-07T07:36:52.874Z,2.60
2018-07-07T07:39:21.177Z,2.83
2018-07-07T07:41:49.157Z,3.83
2018-07-07T07:44:16.817Z,4.10
2018-07-07T07:46:45.317Z,3.40
2018-07-07T07:49:13.352Z,2.70
2018-07-07T07:51:42.252Z,2.70
2018-07-07T07:54:09.862Z,4.07
2018-07-07T07:56:37.536Z,2.90
2018-07-07T07:59:05.171Z,3.40
2018-07-07T08:01:33.324Z,3.33
2018-07-07T08:13:52.611Z,3.40
2018-07-07T08:16:21.023Z,3.00
2018-07-07T08:18:49.426Z,3.40
2018-07-07T08:21:17.037Z,3.03
2018-07-07T08:23:44.605Z,2.90
2018-07-07T08:26:12.167Z,2.80
2018-07-07T08:28:39.766Z,3.00
2018-07-07T08:31:07.523Z,3.50
2018-07-07T08:33:35.031Z,4.70
2018-07-07T08:36:03.285Z,3.70
2018-07-07T08:38:31.301Z,4.70
2018-07-07T08:40:58.873Z,3.40
2018-07-07T08:43:28.013Z,3.57
2018-07-07T08:45:56.805Z,3.60
2018-07-07T08:48:24.368Z,3.10
2018-07-07T08:50:51.901Z,2.90
2018-07-07T08:53:20.100Z,3.30
2018-07-07T08:55:47.907Z,3.40
2018-07-07T08:58:16.193Z,2.90
2018-07-07T09:00:44.660Z,3.43
2018-07-07T09:03:12.155Z,3.60
2018-07-07T09:05:39.860Z,3.50
2018-07-07T09:08:07.496Z,3.27
2018-07-07T09:10:35.020Z,3.77
2018-07-07T09:13:02.468Z,4.10
2018-07-07T09:15:30.345Z,3.90
2018-07-07T09:17:57.939Z,4.33
2018-07-07T09:20:25.445Z,3.80
2018-07-07T09:22:53.077Z,4.40
2018-07-07T09:25:20.589Z,4.20
2018-07-07T09:27:48.124Z,4.43
2018-07-07T09:30:15.672Z,4.70
2018-07-07T09:32:43.345Z,4.60
2018-07-07T09:35:10.859Z,5.00
2018-07-07T09:37:38.872Z,5.00
2018-07-07T09:40:06.616Z,6.00
2018-07-07T09:42:33.997Z,6.27
2018-07-07T09:45:01.632Z,4.60
2018-07-07T09:47:29.919Z,4.77
2018-07-07T09:49:57.439Z,5.60
2018-07-07T09:52:25.021Z,5.30
2018-07-07T09:54:53.534Z,5.47
2018-07-07T09:57:21.039Z,5.00
2018-07-07T09:59:48.699Z,5.03
2018-07-07T10:02:16.853Z,5.30
2018-07-07T10:04:44.507Z,5.60
2018-07-07T10:07:11.998Z,5.87
2018-07-07T10:09:40.053Z,5.20
2018-07-07T10:12:07.513Z,5.90
2018-07-07T10:14:35.225Z,6.13
2018-07-07T10:17:02.756Z,5.77
2018-07-07T10:19:31.525Z,6.70
2018-07-07T10:21:58.951Z,6.40
2018-07-07T10:24:26.586Z,6.07
2018-07-07T10:26:54.309Z,6.90
2018-07-07T10:29:22.560Z,7.03
2018-07-07T10:31:50.450Z,6.10
2018-07-07T10:34:18.553Z,6.20
2018-07-07T10:36:46.215Z,6.40
2018-07-07T11:23:52.149Z,6.20
2018-07-07T11:26:19.887Z,6.37
2018-07-07T11:28:47.986Z,6.27
2018-07-07T11:31:15.549Z,5.60
2018-07-07T11:33:43.165Z,6.53
2018-07-07T11:36:10.745Z,6.40
2018-07-07T11:38:38.725Z,6.40
2018-07-07T11:41:06.550Z,6.70
2018-07-07T11:43:34.174Z,6.50
2018-07-07T11:46:02.624Z,6.30
2018-07-07T11:48:30.841Z,5.60
2018-07-07T11:50:59.028Z,6.53
2018-07-07T11:53:26.682Z,6.30
2018-07-07T11:55:55.142Z,5.07
2018-07-07T11:58:22.714Z,5.63
2018-07-07T12:00:50.244Z,6.53
2018-07-07T12:03:17.781Z,5.80
2018-07-07T12:05:45.259Z,6.37
2018-07-07T12:08:14.253Z,6.23
2018-07-07T12:10:40.327Z,6.13
2018-07-07T12:13:07.807Z,6.80
2018-07-07T12:15:36.000Z,6.10
2018-07-07T12:18:05.269Z,5.70
2018-07-07T12:20:32.913Z,6.23
2018-07-07T12:23:00.423Z,5.60
2018-07-07T12:25:28.612Z,5.83
2018-07-07T12:27:56.235Z,5.40
2018-07-07T12:30:23.870Z,5.60
2018-07-07T12:32:52.714Z,6.43
2018-07-07T12:35:20.354Z,7.10
2018-07-07T12:37:48.120Z,6.83
2018-07-07T12:40:15.655Z,6.23
2018-07-07T12:42:44.256Z,6.13
2018-07-07T12:45:11.888Z,6.40
2018-07-07T12:47:39.896Z,5.77
2018-07-07T12:50:07.543Z,5.70
2018-07-07T12:52:35.268Z,5.80
2018-07-07T12:55:03.034Z,5.40
2018-07-07T12:57:31.287Z,5.93
2018-07-07T12:59:58.863Z,5.97
2018-07-07T13:02:26.386Z,6.20
2018-07-07T13:04:53.901Z,5.90
2018-07-07T13:07:22.593Z,5.37
2018-07-07T13:09:50.203Z,5.50
2018-07-07T13:12:18.344Z,6.47
2018-07-07T13:14:45.874Z,5.37
2018-07-07T13:17:13.380Z,5.47
2018-07-07T13:19:41.128Z,5.53
2018-07-07T13:22:09.294Z,6.87
2018-07-07T13:24:37.750Z,6.30
2018-07-07T13:27:05.612Z,5.73
2018-07-07T13:29:33.757Z,5.77
2018-07-07T13:32:01.393Z,5.53
2018-07-07T13:34:29.000Z,5.90
2018-07-07T13:36:56.747Z,5.40
2018-07-07T13:39:24.754Z,5.63
2018-07-07T13:41:52.674Z,5.90
2018-07-07T13:44:20.302Z,6.20
2018-07-07T13:46:47.784Z,6.03
2018-07-07T13:49:15.698Z,5.33
2018-07-07T13:51:43.255Z,5.37
2018-07-07T13:54:10.843Z,4.90
2018-07-07T13:56:38.403Z,5.47
2018-07-07T13:59:06.191Z,4.93
2018-07-07T14:01:33.776Z,4.97
2018-07-07T14:04:02.112Z,5.40
2018-07-07T14:06:29.727Z,5.90
2018-07-07T14:08:58.059Z,5.80
2018-07-07T14:11:25.776Z,5.17
2018-07-07T14:13:53.455Z,5.30
2018-07-07T14:16:21.121Z,5.70
2018-07-07T14:18:49.273Z,6.13
2018-07-07T14:21:17.804Z,5.67
2018-07-07T14:23:45.926Z,5.60
2018-07-07T14:26:14.504Z,6.00
2018-07-07T14:28:42.656Z,5.50
2018-07-07T14:31:11.000Z,5.70
2018-07-07T14:33:38.866Z,6.33
2018-07-07T14:36:06.533Z,5.17
2018-07-07T14:38:36.984Z,5.50
2018-07-07T14:41:13.973Z,5.70
2018-07-07T14:43:52.233Z,5.13
2018-07-07T14:46:21.373Z,5.60
2018-07-07T14:48:49.645Z,5.23
2018-07-07T14:51:17.948Z,5.60
2018-07-07T14:53:46.146Z,5.30
2018-07-07T14:56:14.230Z,5.17
2018-07-07T14:58:42.097Z,4.90
2018-07-07T15:01:10.962Z,5.07
2018-07-07T15:03:39.390Z,5.57
2018-07-07T15:06:07.299Z,5.43
2018-07-07T15:08:36.569Z,4.80
2018-07-07T15:11:04.261Z,5.27
2018-07-07T15:13:32.604Z,5.73
2018-07-07T15:16:01.591Z,5.10
2018-07-07T15:18:29.869Z,5.10
2018-07-07T15:20:59.089Z,4.33
2018-07-07T15:23:28.612Z,4.63
2018-07-07T15:25:56.977Z,5.20
2018-07-07T15:28:25.254Z,4.40
2018-07-07T15:30:53.099Z,4.70
2018-07-07T15:33:20.745Z,4.30
2018-07-07T15:35:48.301Z,4.40
2018-07-07T15:38:15.994Z,4.20
2018-07-07T15:40:43.453Z,3.67
2018-07-07T15:43:11.092Z,3.70
2018-07-07T15:45:38.872Z,4.33
2018-07-07T15:48:06.674Z,4.50
2018-07-07T15:50:34.349Z,3.40
2018-07-07T15:53:02.012Z,3.17
2018-07-07T15:55:29.599Z,4.00
2018-07-07T15:57:57.322Z,3.00
2018-07-07T16:00:25.007Z,3.60
2018-07-07T16:02:52.970Z,3.13
2018-07-07T16:05:20.590Z,3.37
2018-07-07T16:07:48.822Z,3.70
2018-07-07T16:10:16.528Z,3.60
2018-07-07T16:12:44.195Z,3.70
2018-07-07T16:15:12.879Z,3.50
2018-07-07T16:17:40.712Z,4.00
2018-07-07T16:20:08.242Z,3.30
2018-07-07T16:22:36.805Z,3.90
2018-07-07T16:25:05.061Z,3.33
2018-07-07T16:27:32.774Z,3.47
2018-07-07T16:30:01.566Z,2.90
2018-07-07T16:32:29.631Z,3.00
2018-07-07T16:34:57.379Z,3.60
2018-07-07T16:37:25.609Z,2.97
2018-07-07T16:39:53.999Z,2.93
2018-07-07T16:42:22.539Z,2.83
2018-07-07T16:44:50.433Z,3.13
2018-07-07T16:47:18.545Z,3.10
2018-07-07T16:49:46.423Z,2.90
2018-07-07T16:52:14.546Z,2.47
2018-07-07T16:54:45.746Z,2.40
2018-07-07T16:57:15.091Z,2.70
2018-07-07T16:59:43.333Z,2.80
2018-07-07T17:02:15.188Z,2.57
2018-07-07T17:04:42.747Z,2.00
2018-07-07T17:07:10.612Z,2.50
2018-07-07T17:09:38.486Z,2.67
2018-07-07T17:12:06.707Z,2.03
2018-07-07T17:14:34.461Z,2.77
2018-07-07T17:17:02.126Z,2.00
2018-07-07T17:19:30.454Z,2.00
2018-07-07T17:21:58.133Z,2.37
2018-07-07T17:24:28.092Z,2.40
2018-07-07T17:26:57.127Z,2.33
2018-07-07T17:29:25.023Z,2.47
2018-07-07T17:31:53.077Z,2.90
2018-07-07T17:34:20.819Z,2.70
2018-07-07T17:36:49.101Z,2.90
2018-07-07T17:39:16.770Z,3.00
2018-07-07T17:41:44.286Z,2.50
2018-07-07T17:44:12.386Z,2.43
2018-07-07T17:46:40.058Z,2.00
2018-07-07T17:49:07.723Z,2.50
2018-07-07T17:51:35.376Z,2.07
2018-07-07T17:54:03.762Z,2.40
2018-07-07T17:56:31.594Z,2.47
2018-07-07T17:59:00.798Z,2.20
2018-07-07T18:01:29.402Z,2.83
2018-07-07T18:03:57.440Z,2.17
2018-07-07T18:06:25.410Z,2.57
2018-07-07T18:08:53.060Z,2.50
2018-07-07T18:11:20.660Z,2.67
2018-07-07T18:13:48.969Z,3.10
2018-07-07T18:16:17.683Z,2.97
2018-07-07T18:18:45.316Z,2.57
2018-07-07T18:21:12.969Z,2.60
2018-07-07T18:23:40.452Z,2.80
2018-07-07T18:26:07.978Z,2.60
2018-07-07T18:28:35.756Z,4.03
2018-07-07T18:31:03.441Z,5.20
2018-07-07T18:33:31.547Z,4.50
2018-07-07T18:35:59.307Z,4.03
2018-07-07T18:38:26.889Z,3.23
2018-07-07T18:40:55.178Z,3.43
2018-07-07T18:43:22.671Z,3.63
2018-07-07T18:45:51.439Z,3.30
2018-07-07T18:48:19.237Z,3.20
2018-07-07T18:50:48.691Z,2.93
2018-07-07T18:53:16.849Z,3.00
2018-07-07T18:55:45.763Z,2.53
2018-07-07T18:58:13.484Z,2.67
2018-07-07T19:00:41.167Z,2.60
2018-07-07T19:03:08.869Z,2.77
2018-07-07T19:05:36.485Z,2.57
2018-07-07T19:08:04.573Z,2.70
2018-07-07T19:10:33.029Z,2.80
2018-07-07T19:13:01.479Z,2.77
2018-07-07T19:15:29.699Z,3.10
2018-07-07T19:17:57.171Z,2.43
2018-07-07T19:20:31.281Z,2.60
2018-07-07T19:23:04.508Z,2.93
2018-07-07T19:25:37.692Z,2.90
2018-07-07T19:28:05.470Z,2.53
2018-07-07T19:30:32.994Z,2.93
2018-07-07T19:33:06.185Z,2.80
2018-07-07T19:35:39.404Z,3.67
2018-07-07T19:38:07.649Z,2.90
2018-07-07T19:40:35.866Z,2.57
2018-07-07T19:43:03.636Z,3.50
2018-07-07T19:45:31.482Z,3.87
2018-07-07T19:47:59.279Z,2.90
2018-07-07T19:50:27.037Z,3.50
2018-07-07T19:52:54.867Z,2.80
2018-07-07T19:55:22.432Z,2.97
2018-07-07T19:57:50.005Z,2.50
2018-07-07T20:00:18.320Z,3.40
2018-07-07T20:02:45.920Z,2.70
2018-07-07T20:05:13.748Z,2.87
2018-07-07T20:07:41.578Z,3.20
2018-07-07T20:10:09.259Z,3.03
2018-07-07T20:12:36.946Z,3.10
2018-07-07T20:15:04.559Z,2.80
2018-07-07T20:17:43.641Z,3.03
2018-07-07T20:20:52.226Z,2.73
2018-07-07T20:23:19.944Z,3.27
2018-07-07T20:25:53.164Z,2.60
2018-07-07T20:28:26.357Z,3.47
2018-07-07T20:30:57.370Z,3.23
2018-07-07T20:33:25.922Z,2.97
2018-07-07T20:35:54.363Z,3.03
2018-07-07T20:38:22.156Z,3.33
2018-07-07T20:40:51.401Z,3.70
2018-07-07T20:43:19.724Z,3.13
2018-07-07T20:45:47.361Z,2.90
2018-07-07T20:48:15.908Z,3.03
2018-07-07T20:50:43.570Z,2.90
2018-07-07T20:53:11.844Z,2.80
2018-07-07T20:55:39.527Z,2.50
2018-07-07T20:58:08.206Z,2.80
2018-07-07T21:00:36.007Z,2.70
2018-07-07T21:03:03.730Z,2.70
2018-07-07T21:15:22.392Z,1.90
2018-07-07T21:17:50.091Z,3.63
2018-07-07T21:20:18.290Z,3.60
2018-07-07T21:22:46.020Z,3.03
2018-07-07T21:25:13.657Z,2.70
2018-07-07T21:27:41.253Z,2.80
2018-07-07T21:30:08.881Z,2.80
2018-07-07T21:32:36.734Z,3.10
2018-07-07T21:35:04.551Z,3.17
2018-07-07T21:37:32.304Z,2.67
2018-07-07T21:39:59.832Z,2.80
2018-07-07T21:42:27.516Z,2.63
2018-07-07T21:44:55.073Z,3.10
2018-07-07T21:47:22.765Z,2.40
2018-07-07T21:49:50.399Z,2.83
2018-07-07T21:52:18.574Z,2.60
2018-07-07T21:54:46.434Z,2.40
2018-07-07T21:57:19.826Z,2.67
2018-07-07T21:59:47.358Z,2.80
2018-07-07T22:02:20.746Z,2.40
2018-07-07T22:04:53.990Z,2.40
2018-07-07T22:07:27.300Z,2.60
2018-07-07T22:09:54.900Z,3.10
2018-07-07T22:12:23.306Z,2.60
2018-07-07T22:14:50.869Z,2.40
2018-07-07T22:17:18.433Z,2.10
2018-07-07T22:19:46.211Z,3.10
2018-07-07T22:22:13.818Z,2.20
2018-07-07T22:24:42.295Z,3.47
2018-07-07T22:27:11.278Z,3.77
2018-07-07T22:29:38.993Z,2.70
2018-07-07T22:32:12.631Z,3.33
2018-07-07T22:34:40.357Z,3.40
2018-07-07T22:37:08.250Z,3.37
2018-07-07T22:39:37.279Z,3.53
2018-07-07T22:42:07.432Z,2.60
2018-07-07T22:44:35.688Z,2.50
2018-07-07T22:47:03.425Z,2.50
2018-07-07T22:49:31.407Z,2.77
2018-07-07T22:51:59.852Z,3.17
2018-07-07T22:54:27.570Z,3.70
2018-07-07T22:56:55.381Z,3.30
2018-07-07T22:59:23.019Z,3.77
2018-07-07T23:01:51.320Z,3.23
2018-07-07T23:04:19.120Z,2.53
2018-07-07T23:06:47.128Z,2.80
2018-07-07T23:09:15.690Z,3.20
2018-07-07T23:11:44.404Z,2.27
2018-07-07T23:14:11.972Z,2.50
2018-07-07T23:16:39.610Z,3.27
2018-07-07T23:19:07.667Z,2.70
2018-07-07T23:21:35.957Z,3.10
2018-07-07T23:24:04.784Z,2.47
2018-07-07T23:26:32.526Z,2.67
2018-07-07T23:29:01.766Z,2.67
2018-07-07T23:31:29.328Z,3.37
2018-07-07T23:33:56.941Z,2.50
2018-07-07T23:36:24.644Z,3.40
2018-07-07T23:38:52.978Z,2.70
2018-07-07T23:41:21.318Z,2.30
2018-07-07T23:43:48.944Z,3.00
2018-07-07T23:46:16.463Z,3.23
2018-07-07T23:48:44.131Z,3.37
2018-07-07T23:51:11.701Z,2.90
2018-07-07T23:53:39.776Z,2.57
2018-07-07T23:56:07.747Z,2.73
2018-07-07T23:58:35.380Z,2.53
